createdAt,value
2022-12-24T00:01:37.873Z,1.25
2022-12-24T00:04:04.898Z,1.58
2022-12-24T00:06:31.654Z,1.08
2022-12-24T00:08:58.831Z,1.15
2022-12-24T00:11:25.511Z,0.95
2022-12-24T00:13:52.288Z,1.10
2022-12-24T00:16:19.108Z,1.20
2022-12-24T00:18:47.068Z,1.83
2022-12-24T00:21:15.240Z,1.35
2022-12-24T00:23:42.387Z,2.03
2022-12-24T00:26:09.101Z,1.48
2022-12-24T00:28:35.749Z,1.63
2022-12-24T00:31:10.523Z,1.45
2022-12-24T00:33:37.365Z,1.77
2022-12-24T00:36:04.242Z,2.40
2022-12-24T00:38:31.022Z,2.20
2022-12-24T00:41:01.865Z,1.90
2022-12-24T00:43:29.169Z,1.40
2022-12-24T00:45:57.096Z,2.10
2022-12-24T00:48:24.097Z,1.30
2022-12-24T00:50:50.947Z,2.22
2022-12-24T00:53:18.061Z,1.60
2022-12-24T00:55:44.898Z,1.63
2022-12-24T00:58:11.581Z,1.83
2022-12-24T01:00:38.336Z,1.48
2022-12-24T01:03:05.143Z,1.40
2022-12-24T01:05:32.033Z,2.17
2022-12-24T01:07:58.790Z,1.63
2022-12-24T01:10:25.975Z,1.40
2022-12-24T01:12:52.708Z,1.70
2022-12-24T01:15:19.496Z,1.50
2022-12-24T01:17:46.287Z,1.83
2022-12-24T01:20:15.262Z,1.40
2022-12-24T01:22:42.022Z,1.95
2022-12-24T01:25:09.044Z,1.50
2022-12-24T01:27:35.784Z,1.67
2022-12-24T01:30:02.517Z,1.35
2022-12-24T01:32:29.256Z,1.38
2022-12-24T01:34:56.048Z,1.23
2022-12-24T01:37:22.774Z,1.30
2022-12-24T01:39:49.456Z,0.90
2022-12-24T01:42:41.700Z,1.23
2022-12-24T01:45:46.217Z,1.10
2022-12-24T01:48:23.177Z,0.93
2022-12-24T01:50:51.496Z,1.08
2022-12-24T01:53:18.279Z,1.30
2022-12-24T01:55:45.646Z,0.88
2022-12-24T01:58:12.676Z,0.80
2022-12-24T02:00:39.435Z,0.82
2022-12-24T02:03:06.215Z,1.15
2022-12-24T02:05:45.049Z,1.02
2022-12-24T02:08:11.842Z,0.90
2022-12-24T02:10:38.648Z,0.80
2022-12-24T02:13:05.476Z,1.50
2022-12-24T02:15:44.502Z,1.20
2022-12-24T02:18:26.519Z,1.13
2022-12-24T02:21:17.343Z,1.13
2022-12-24T02:24:03.500Z,0.95
2022-12-24T02:26:48.591Z,1.10
2022-12-24T02:29:22.041Z,1.35
2022-12-24T02:31:58.219Z,1.15
2022-12-24T02:34:43.002Z,1.23
2022-12-24T02:37:35.225Z,0.95
2022-12-24T02:40:17.190Z,0.93
2022-12-24T02:42:46.593Z,0.70
2022-12-24T02:45:18.145Z,0.90
2022-12-24T02:47:45.056Z,1.13
2022-12-24T02:50:13.881Z,0.80
2022-12-24T02:52:42.623Z,1.08
2022-12-24T02:55:11.472Z,0.73
2022-12-24T02:57:56.949Z,1.00
2022-12-24T03:00:24.104Z,1.20
2022-12-24T03:03:12.652Z,1.42
2022-12-24T03:05:51.565Z,1.13
2022-12-24T03:08:44.277Z,1.60
2022-12-24T03:11:12.200Z,1.50
2022-12-24T03:13:39.408Z,1.63
2022-12-24T03:16:11.311Z,1.15
2022-12-24T03:18:39.127Z,2.30
2022-12-24T03:21:22.469Z,1.35
2022-12-24T03:23:49.250Z,0.90
2022-12-24T03:26:17.185Z,1.40
2022-12-24T03:28:43.927Z,1.38
2022-12-24T03:31:10.809Z,0.95
2022-12-24T03:33:37.801Z,1.52
2022-12-24T03:36:04.899Z,1.33
2022-12-24T03:38:31.620Z,1.40
2022-12-24T03:40:58.345Z,1.08
2022-12-24T03:43:25.259Z,1.20
2022-12-24T03:45:52.015Z,1.08
2022-12-24T03:48:18.763Z,1.30
2022-12-24T03:50:45.459Z,1.30
2022-12-24T03:53:12.127Z,0.98
2022-12-24T03:55:39.221Z,1.00
2022-12-24T03:58:06.038Z,1.23
2022-12-24T04:00:32.746Z,0.80
2022-12-24T04:02:59.451Z,1.20
2022-12-24T04:05:26.211Z,0.60
2022-12-24T04:07:52.883Z,1.00
2022-12-24T04:10:20.092Z,0.88
2022-12-24T04:12:46.809Z,0.80
2022-12-24T04:15:13.504Z,1.48
2022-12-24T04:17:40.184Z,0.75
2022-12-24T04:20:07.503Z,1.23
2022-12-24T04:22:34.218Z,1.05
2022-12-24T04:25:01.036Z,0.70
2022-12-24T04:27:30.623Z,1.08
2022-12-24T04:29:57.693Z,0.77
2022-12-24T04:32:26.132Z,1.00
2022-12-24T04:34:52.876Z,0.90
2022-12-24T04:37:19.631Z,0.80
2022-12-24T04:39:46.325Z,1.25
2022-12-24T04:42:13.175Z,1.77
2022-12-24T04:44:39.844Z,0.90
2022-12-24T04:47:06.527Z,1.10
2022-12-24T04:49:33.385Z,0.82
2022-12-24T04:52:00.037Z,1.27
2022-12-24T04:54:26.958Z,1.05
2022-12-24T04:56:53.763Z,1.40
2022-12-24T04:59:20.898Z,0.80
2022-12-24T05:01:47.735Z,0.68
2022-12-24T05:04:14.537Z,0.80
2022-12-24T05:06:41.474Z,0.68
2022-12-24T05:09:08.127Z,1.00
2022-12-24T05:11:34.783Z,0.98
2022-12-24T05:14:01.499Z,0.77
2022-12-24T05:16:28.219Z,1.17
2022-12-24T05:18:54.988Z,0.70
2022-12-24T05:21:23.015Z,0.80
2022-12-24T05:24:08.756Z,0.70
2022-12-24T05:26:42.618Z,0.98
2022-12-24T05:29:09.473Z,1.10
2022-12-24T05:31:36.613Z,0.80
2022-12-24T05:34:03.368Z,1.25
2022-12-24T05:36:30.189Z,0.88
2022-12-24T05:38:56.928Z,0.93
2022-12-24T05:41:23.757Z,1.20
2022-12-24T05:43:50.536Z,1.13
2022-12-24T05:46:18.983Z,1.25
2022-12-24T05:48:46.230Z,1.20
2022-12-24T05:51:13.423Z,0.90
2022-12-24T05:53:40.226Z,1.20
2022-12-24T05:56:11.049Z,1.70
2022-12-24T05:58:38.379Z,1.38
2022-12-24T06:01:05.609Z,1.25
2022-12-24T06:03:32.383Z,0.77
2022-12-24T06:06:10.024Z,0.80
2022-12-24T06:08:38.722Z,0.60
2022-12-24T06:11:07.339Z,0.90
2022-12-24T06:13:34.300Z,0.63
2022-12-24T06:16:02.137Z,0.70
2022-12-24T06:18:29.957Z,0.50
2022-12-24T06:20:57.407Z,0.55
2022-12-24T06:23:24.267Z,0.60
2022-12-24T06:25:51.178Z,0.47
2022-12-24T06:28:18.118Z,0.30
2022-12-24T06:30:48.799Z,0.45
2022-12-24T06:33:15.957Z,0.47
2022-12-24T06:35:43.041Z,0.57
2022-12-24T06:38:09.798Z,0.40
2022-12-24T06:40:38.497Z,1.08
2022-12-24T06:43:05.456Z,0.40
2022-12-24T06:45:32.252Z,0.65
2022-12-24T06:47:59.459Z,0.38
2022-12-24T06:50:26.314Z,0.50
2022-12-24T06:52:53.386Z,0.52
2022-12-24T06:55:20.086Z,0.80
2022-12-24T06:57:46.797Z,0.73
2022-12-24T07:00:14.016Z,1.08
2022-12-24T07:02:41.581Z,0.82
2022-12-24T07:05:10.469Z,0.70
2022-12-24T07:07:38.315Z,0.70
2022-12-24T07:10:05.551Z,0.60
2022-12-24T07:12:32.315Z,0.50
2022-12-24T07:14:59.022Z,0.38
2022-12-24T07:17:26.310Z,0.30
2022-12-24T07:19:53.270Z,0.80
2022-12-24T07:22:19.984Z,0.60
2022-12-24T07:24:46.728Z,0.70
2022-12-24T07:27:13.572Z,0.75
2022-12-24T07:29:41.354Z,0.55
2022-12-24T07:32:08.297Z,0.77
2022-12-24T07:34:35.166Z,0.93
2022-12-24T07:37:02.054Z,0.68
2022-12-24T07:39:29.947Z,0.43
2022-12-24T07:41:56.634Z,1.05
2022-12-24T07:44:23.373Z,0.63
2022-12-24T07:46:50.617Z,0.70
2022-12-24T07:49:17.521Z,0.73
2022-12-24T07:51:44.285Z,0.50
2022-12-24T07:54:11.416Z,0.52
2022-12-24T07:56:38.146Z,0.32
2022-12-24T07:59:04.861Z,0.50
2022-12-24T08:01:31.654Z,0.47
2022-12-24T08:03:58.882Z,0.40
2022-12-24T08:06:25.659Z,0.50
2022-12-24T08:08:52.363Z,0.45
2022-12-24T08:11:19.060Z,0.40
2022-12-24T08:13:45.737Z,0.70
2022-12-24T08:16:12.701Z,0.50
2022-12-24T08:18:39.991Z,0.50
2022-12-24T08:21:09.970Z,0.80
2022-12-24T08:23:37.052Z,0.60
2022-12-24T08:26:03.920Z,0.68
2022-12-24T08:28:30.806Z,0.82
2022-12-24T08:30:57.561Z,0.70
2022-12-24T08:33:24.280Z,0.73
2022-12-24T08:35:55.220Z,0.40
2022-12-24T08:38:22.010Z,0.73
2022-12-24T08:40:50.186Z,0.40
2022-12-24T08:43:17.677Z,0.43
2022-12-24T08:45:44.517Z,0.40
2022-12-24T08:48:11.507Z,0.50
2022-12-24T08:50:41.643Z,0.40
2022-12-24T08:53:09.080Z,0.70
2022-12-24T08:55:35.788Z,0.50
2022-12-24T08:58:02.640Z,0.38
2022-12-24T09:00:31.217Z,0.50
2022-12-24T09:02:58.143Z,0.50
2022-12-24T09:05:26.112Z,0.40
2022-12-24T09:07:52.985Z,0.30
2022-12-24T09:10:20.268Z,0.45
2022-12-24T09:12:47.372Z,0.60
2022-12-24T09:15:14.386Z,0.40
2022-12-24T09:17:41.348Z,0.45
2022-12-24T09:20:08.745Z,0.52
2022-12-24T09:22:39.393Z,0.50
2022-12-24T09:25:06.818Z,0.40
2022-12-24T09:27:35.830Z,0.57
2022-12-24T09:30:02.781Z,0.60
2022-12-24T09:32:29.824Z,0.40
2022-12-24T09:34:56.940Z,0.70
2022-12-24T09:37:23.926Z,0.90
2022-12-24T09:39:51.285Z,0.50
2022-12-24T09:42:40.622Z,0.68
2022-12-24T09:45:36.585Z,0.70
2022-12-24T09:48:14.556Z,0.90
2022-12-24T09:50:52.054Z,0.50
2022-12-24T09:53:47.912Z,0.40
2022-12-24T09:56:19.302Z,0.55
2022-12-24T09:58:51.235Z,0.50
2022-12-24T10:01:18.182Z,0.70
2022-12-24T10:03:45.014Z,0.80
2022-12-24T10:06:16.152Z,0.50
2022-12-24T10:08:57.968Z,0.70
2022-12-24T10:11:53.868Z,0.60
2022-12-24T10:14:48.113Z,0.60
2022-12-24T10:17:31.389Z,0.65
2022-12-24T10:19:58.060Z,0.50
2022-12-24T10:22:58.539Z,0.40
2022-12-24T10:25:37.835Z,0.63
2022-12-24T10:28:08.914Z,0.77
2022-12-24T10:30:35.682Z,0.50
2022-12-24T10:33:02.394Z,0.38
2022-12-24T10:35:37.586Z,0.73
2022-12-24T10:38:04.500Z,1.05
2022-12-24T10:40:45.092Z,0.50
2022-12-24T10:43:19.616Z,0.60
2022-12-24T10:46:03.675Z,0.57
2022-12-24T10:48:50.322Z,0.70
2022-12-24T10:51:24.460Z,0.70
2022-12-24T10:54:06.868Z,0.50
2022-12-24T10:56:42.173Z,0.60
2022-12-24T10:59:43.182Z,0.73
2022-12-24T11:02:32.381Z,0.52
2022-12-24T11:05:00.261Z,0.70
2022-12-24T11:07:27.611Z,0.57
2022-12-24T11:10:14.679Z,0.63
2022-12-24T11:13:00.292Z,0.50
2022-12-24T11:15:34.643Z,0.30
2022-12-24T11:18:04.839Z,0.57
2022-12-24T11:20:34.715Z,0.38
2022-12-24T11:23:02.272Z,0.75
2022-12-24T11:25:31.649Z,1.05
2022-12-24T11:28:19.518Z,1.13
2022-12-24T11:31:26.807Z,1.00
2022-12-24T11:33:53.520Z,1.63
2022-12-24T11:36:21.874Z,1.55
2022-12-24T11:38:57.983Z,0.80
2022-12-24T11:41:25.282Z,0.80
2022-12-24T11:44:03.513Z,1.10
2022-12-24T11:46:46.283Z,0.73
2022-12-24T11:49:17.508Z,1.00
2022-12-24T11:52:10.077Z,1.20
2022-12-24T11:55:17.098Z,1.00
2022-12-24T11:57:50.625Z,0.80
2022-12-24T12:00:17.762Z,0.80
2022-12-24T12:02:45.222Z,1.10
2022-12-24T12:05:20.389Z,1.00
2022-12-24T12:07:48.598Z,0.90
2022-12-24T12:10:22.857Z,0.93
2022-12-24T12:13:15.909Z,0.90
2022-12-24T12:16:03.929Z,0.80
2022-12-24T12:18:36.919Z,0.98
2022-12-24T12:21:25.225Z,0.95
2022-12-24T12:23:54.841Z,0.70
2022-12-24T12:26:26.684Z,0.70
2022-12-24T12:29:01.884Z,0.70
2022-12-24T12:31:47.827Z,0.85
2022-12-24T12:34:32.598Z,0.98
2022-12-24T12:37:11.139Z,0.90
2022-12-24T12:39:41.200Z,0.70
2022-12-24T12:42:31.325Z,1.10
2022-12-24T12:45:04.116Z,0.80
2022-12-24T12:48:01.578Z,1.42
2022-12-24T12:50:44.820Z,1.17
2022-12-24T12:53:32.743Z,0.90
2022-12-24T12:56:07.022Z,0.85
2022-12-24T12:58:49.869Z,0.70
2022-12-24T13:01:41.674Z,0.80
2022-12-24T13:04:15.149Z,1.00
2022-12-24T13:06:52.567Z,1.25
2022-12-24T13:09:40.625Z,1.05
2022-12-24T13:12:25.406Z,1.08
2022-12-24T13:15:14.032Z,0.95
2022-12-24T13:18:07.324Z,1.10
2022-12-24T13:20:36.890Z,1.33
2022-12-24T13:23:12.685Z,1.15
2022-12-24T13:25:41.624Z,1.15
2022-12-24T13:28:23.487Z,0.90
2022-12-24T13:30:50.283Z,1.15
2022-12-24T13:33:37.196Z,0.85
2022-12-24T13:36:07.687Z,1.00
2022-12-24T13:38:53.858Z,1.00
2022-12-24T13:41:41.423Z,1.13
2022-12-24T13:44:14.828Z,1.10
2022-12-24T13:47:00.806Z,1.30
2022-12-24T13:49:38.569Z,1.02
2022-12-24T13:52:18.849Z,1.42
2022-12-24T13:55:02.620Z,0.88
2022-12-24T13:57:52.442Z,1.20
2022-12-24T14:00:22.494Z,1.20
2022-12-24T14:03:09.594Z,1.15
2022-12-24T14:05:49.339Z,1.10
2022-12-24T14:08:26.029Z,0.90
2022-12-24T14:11:34.555Z,1.02
2022-12-24T14:14:04.648Z,1.10
2022-12-24T14:16:32.475Z,0.98
2022-12-24T14:18:59.456Z,1.25
2022-12-24T14:21:35.233Z,1.10
2022-12-24T14:24:04.071Z,1.00
2022-12-24T14:26:34.803Z,0.75
2022-12-24T14:29:08.473Z,1.00
2022-12-24T14:31:38.347Z,1.50
2022-12-24T14:34:12.768Z,1.55
2022-12-24T14:36:40.560Z,1.10
2022-12-24T14:39:08.340Z,1.08
2022-12-24T14:41:51.751Z,1.20
2022-12-24T14:44:24.225Z,1.80
2022-12-24T14:46:56.474Z,2.25
2022-12-24T14:49:38.805Z,1.30
2022-12-24T14:52:54.533Z,1.17
2022-12-24T14:55:31.772Z,1.00
2022-12-24T14:58:36.441Z,1.52
2022-12-24T15:01:18.607Z,2.45
2022-12-24T15:03:45.572Z,2.00
2022-12-24T15:06:12.938Z,2.05
2022-12-24T15:08:44.201Z,1.50
2022-12-24T15:11:21.110Z,1.85
2022-12-24T15:13:55.847Z,1.63
2022-12-24T15:16:41.393Z,1.00
2022-12-24T15:19:15.688Z,1.30
2022-12-24T15:21:42.628Z,1.25
2022-12-24T15:24:32.356Z,1.35
2022-12-24T15:27:00.031Z,0.80
2022-12-24T15:29:43.364Z,0.82
2022-12-24T15:32:14.832Z,0.68
2022-12-24T15:34:45.980Z,0.77
2022-12-24T15:37:24.087Z,0.70
2022-12-24T15:40:26.806Z,1.17
2022-12-24T15:42:53.767Z,0.63
2022-12-24T15:45:28.890Z,0.63
2022-12-24T15:48:00.688Z,1.08
2022-12-24T15:50:56.851Z,0.85
2022-12-24T15:53:30.738Z,0.85
2022-12-24T15:56:14.331Z,0.73
2022-12-24T16:01:15.517Z,0.93
2022-12-24T16:03:51.665Z,0.73
2022-12-24T16:06:18.828Z,1.23
2022-12-24T16:08:50.015Z,0.70
2022-12-24T16:11:35.287Z,0.85
2022-12-24T16:14:17.189Z,0.70
2022-12-24T16:16:46.654Z,0.70
2022-12-24T16:19:39.470Z,0.80
2022-12-24T16:22:25.488Z,0.77
2022-12-24T16:24:52.687Z,0.75
2022-12-24T16:27:19.746Z,0.80
2022-12-24T16:29:47.066Z,1.05
2022-12-24T16:32:33.469Z,1.00
2022-12-24T16:35:00.816Z,1.00
2022-12-24T16:37:28.413Z,1.40
2022-12-24T16:39:55.296Z,1.10
2022-12-24T16:42:40.435Z,1.00
2022-12-24T16:45:07.837Z,1.08
2022-12-24T16:47:42.087Z,1.00
2022-12-24T16:50:14.619Z,1.02
2022-12-24T16:52:41.479Z,1.23
2022-12-24T16:55:09.187Z,0.90
2022-12-24T16:57:35.990Z,0.98
2022-12-24T17:00:20.469Z,0.90
2022-12-24T17:02:47.869Z,1.02
2022-12-24T17:05:14.962Z,1.02
2022-12-24T17:07:43.900Z,1.17
2022-12-24T17:10:12.292Z,1.02
2022-12-24T17:12:41.456Z,0.93
2022-12-24T17:15:08.686Z,0.95
2022-12-24T17:17:35.506Z,0.90
2022-12-24T17:20:03.199Z,2.33
2022-12-24T17:22:29.937Z,2.20
2022-12-24T17:24:56.687Z,1.92
2022-12-24T17:27:23.579Z,2.05
2022-12-24T17:29:50.446Z,1.55
2022-12-24T17:32:17.180Z,1.63
2022-12-24T17:34:43.887Z,1.30
2022-12-24T17:37:10.643Z,1.92
2022-12-24T17:39:37.385Z,1.40
2022-12-24T17:42:04.339Z,1.35
2022-12-24T17:44:31.107Z,1.33
2022-12-24T17:46:57.881Z,0.93
2022-12-24T17:49:24.832Z,0.82
2022-12-24T17:51:51.495Z,1.00
2022-12-24T17:54:18.165Z,1.30
2022-12-24T17:56:44.939Z,1.13
2022-12-24T17:59:11.702Z,1.08
2022-12-24T18:01:42.727Z,1.55
2022-12-24T18:04:10.573Z,1.73
2022-12-24T18:06:42.895Z,1.63
2022-12-24T18:09:12.407Z,1.17
2022-12-24T18:11:39.282Z,1.70
2022-12-24T18:14:06.198Z,1.98
2022-12-24T18:16:37.392Z,1.80
2022-12-24T18:19:04.913Z,1.20
2022-12-24T18:21:32.069Z,1.52
2022-12-24T18:23:58.906Z,1.08
2022-12-24T18:26:26.854Z,1.70
2022-12-24T18:28:54.804Z,1.70
2022-12-24T18:31:22.262Z,1.67
2022-12-24T18:33:49.571Z,1.90
2022-12-24T18:36:16.476Z,1.42
2022-12-24T18:38:43.302Z,1.10
2022-12-24T18:41:12.048Z,1.00
2022-12-24T18:43:39.003Z,0.98
2022-12-24T18:46:25.838Z,0.90
2022-12-24T18:48:52.920Z,0.80
2022-12-24T18:51:22.321Z,1.85
2022-12-24T18:53:49.488Z,0.75
2022-12-24T18:56:18.691Z,0.90
2022-12-24T18:58:45.876Z,0.95
2022-12-24T19:01:16.839Z,1.15
2022-12-24T19:03:43.878Z,1.55
2022-12-24T19:06:11.133Z,1.35
2022-12-24T19:11:25.012Z,1.38
2022-12-24T19:13:53.190Z,1.00
2022-12-24T19:16:20.298Z,1.40
2022-12-24T19:18:47.361Z,1.00
2022-12-24T19:21:15.214Z,0.90
2022-12-24T19:23:42.015Z,1.25
2022-12-24T19:26:10.079Z,0.90
2022-12-24T19:28:36.873Z,0.95
2022-12-24T19:31:08.137Z,0.98
2022-12-24T19:33:42.422Z,0.68
2022-12-24T19:36:14.321Z,0.80
2022-12-24T19:38:41.156Z,1.02
2022-12-24T19:41:15.251Z,1.20
2022-12-24T19:43:45.656Z,0.77
2022-12-24T19:46:14.641Z,0.98
2022-12-24T19:48:41.706Z,0.90
2022-12-24T19:51:10.851Z,0.80
2022-12-24T19:53:39.158Z,0.80
2022-12-24T19:56:10.711Z,0.90
2022-12-24T19:58:37.749Z,0.98
2022-12-24T20:01:14.712Z,0.50
2022-12-24T20:03:42.682Z,0.52
2022-12-24T20:06:09.453Z,1.13
2022-12-24T20:08:36.963Z,0.60
2022-12-24T20:11:08.398Z,0.90
2022-12-24T20:13:35.478Z,0.80
2022-12-24T20:16:19.374Z,1.02
2022-12-24T20:18:56.697Z,0.60
2022-12-24T20:21:23.798Z,0.80
2022-12-24T20:23:50.752Z,0.80
2022-12-24T20:26:18.477Z,0.70
2022-12-24T20:28:45.540Z,0.77
2022-12-24T20:31:13.886Z,0.57
2022-12-24T20:33:41.766Z,0.57
2022-12-24T20:36:08.810Z,0.80
2022-12-24T20:38:35.977Z,0.68
2022-12-24T20:41:02.751Z,1.05
2022-12-24T20:43:35.289Z,0.70
2022-12-24T20:46:04.359Z,0.80
2022-12-24T20:48:31.766Z,0.70
2022-12-24T20:50:58.988Z,0.70
2022-12-24T20:53:26.682Z,0.90
2022-12-24T20:55:53.875Z,0.70
2022-12-24T20:58:21.096Z,0.90
2022-12-24T21:00:48.398Z,0.88
2022-12-24T21:03:15.975Z,0.73
2022-12-24T21:05:43.082Z,0.73
2022-12-24T21:08:10.317Z,0.60
2022-12-24T21:10:37.832Z,0.63
2022-12-24T21:13:04.669Z,0.57
2022-12-24T21:15:33.487Z,0.70
2022-12-24T21:18:00.561Z,0.60
2022-12-24T21:20:31.168Z,0.40
2022-12-24T21:23:01.159Z,0.60
2022-12-24T21:25:28.346Z,0.80
2022-12-24T21:27:55.601Z,0.82
2022-12-24T21:30:22.627Z,0.82
2022-12-24T21:32:49.405Z,0.70
2022-12-24T21:35:16.201Z,0.70
2022-12-24T21:37:42.995Z,0.88
2022-12-24T21:40:10.427Z,0.63
2022-12-24T21:42:37.209Z,0.63
2022-12-24T21:45:07.667Z,0.70
2022-12-24T21:47:35.545Z,1.00
2022-12-24T21:50:21.585Z,0.63
2022-12-24T21:52:49.084Z,0.63
2022-12-24T21:55:15.821Z,0.73
2022-12-24T21:57:55.013Z,0.90
2022-12-24T22:00:22.344Z,0.80
2022-12-24T22:02:53.820Z,0.75
2022-12-24T22:05:20.891Z,0.80
2022-12-24T22:08:06.235Z,0.60
2022-12-24T22:10:51.624Z,0.60
2022-12-24T22:13:18.515Z,0.75
2022-12-24T22:15:48.110Z,0.73
2022-12-24T22:18:15.957Z,0.90
2022-12-24T22:20:43.724Z,0.60
2022-12-24T22:23:10.637Z,0.90
2022-12-24T22:25:37.532Z,0.65
2022-12-24T22:28:04.416Z,0.77
2022-12-24T22:30:31.249Z,0.77
2022-12-24T22:32:58.468Z,0.80
2022-12-24T22:35:25.247Z,0.98
2022-12-24T22:37:56.018Z,0.43
2022-12-24T22:40:27.996Z,0.70
2022-12-24T22:42:54.898Z,0.80
2022-12-24T22:45:22.670Z,1.00
2022-12-24T22:47:49.932Z,0.60
2022-12-24T22:50:16.973Z,0.70
2022-12-24T22:52:43.827Z,1.10
2022-12-24T22:55:10.571Z,0.90
2022-12-24T22:57:37.253Z,0.80
2022-12-24T23:00:12.932Z,0.77
2022-12-24T23:02:39.769Z,0.90
2022-12-24T23:05:07.012Z,0.93
2022-12-24T23:07:33.762Z,0.98
2022-12-24T23:10:00.514Z,0.70
2022-12-24T23:12:45.849Z,0.85
2022-12-24T23:15:13.589Z,0.75
2022-12-24T23:17:40.332Z,0.80
2022-12-24T23:20:07.625Z,0.70
2022-12-24T23:22:34.264Z,0.65
2022-12-24T23:25:01.381Z,0.63
2022-12-24T23:27:28.075Z,0.57
2022-12-24T23:29:55.252Z,1.05
2022-12-24T23:32:23.407Z,0.65
2022-12-24T23:34:50.148Z,0.82
2022-12-24T23:37:16.890Z,0.60
2022-12-24T23:39:43.761Z,1.02
2022-12-24T23:42:10.464Z,0.90
2022-12-24T23:44:37.236Z,0.60
2022-12-24T23:47:04.198Z,0.73
2022-12-24T23:49:31.069Z,0.70
2022-12-24T23:51:58.115Z,0.60
2022-12-24T23:54:24.850Z,0.70
2022-12-24T23:56:51.555Z,0.70
2022-12-24T23:59:18.228Z,0.90
